English version
lugares datos climáticos artículos

datos de Mairena del Aljarafe, Sevilla, España
Año Mes Dia Mostrar

  Fecha       hora        Temp.ext.    Hum.ext.  Dir.Viento   Vel.Viento  Presion al NM   T.int. Prec.hoy 

   11-12-2018    04:20      12.4º(-1.2)     77%         -         0.0 km/h    1023.5 hpa     23.1º    0.0 mm
   11-12-2018    04:15      12.4º(-1.0)     77%         -         0.0 km/h    1023.6 hpa     23.1º    0.0 mm
   11-12-2018    04:10      12.5º(-0.8)     77%         -         0.0 km/h    1023.6 hpa     23.1º    0.0 mm
   11-12-2018    04:05      12.6º(-0.7)     76%         -         0.0 km/h    1023.7 hpa     23.1º    0.0 mm
   11-12-2018    04:00      12.6º(-0.8)     76%         -         0.0 km/h    1023.7 hpa     23.1º    0.0 mm
   11-12-2018    03:55      12.7º(-0.8)     76%         -         0.0 km/h    1023.7 hpa     23.1º    0.0 mm
   11-12-2018    03:50      12.8º(-0.9)     75%         -         0.0 km/h    1023.7 hpa     23.1º    0.0 mm
   11-12-2018    03:45      12.8º(-1.1)     76%         -         0.0 km/h    1023.8 hpa     23.1º    0.0 mm
   11-12-2018    03:40      12.8º(-1.4)     75%         -         0.0 km/h    1023.7 hpa     23.2º    0.0 mm
   11-12-2018    03:35      12.7º(-1.8)     75%         -         0.0 km/h    1023.7 hpa     23.2º    0.0 mm
   11-12-2018    03:30      12.7º(-2.1)     74%         -         0.0 km/h    1023.7 hpa     23.2º    0.0 mm
   11-12-2018    03:25      12.8º(-2.1)     74%         -         0.0 km/h    1023.7 hpa     23.2º    0.0 mm
   11-12-2018    03:20      13.0º(-2.0)     73%         -         0.0 km/h    1023.9 hpa     23.2º    0.0 mm
   11-12-2018    03:15      13.2º(-1.9)     72%         -         0.0 km/h    1023.7 hpa     23.2º    0.0 mm
   11-12-2018    03:10      13.3º(-1.8)     72%         -         0.0 km/h    1023.8 hpa     23.2º    0.0 mm
   11-12-2018    03:05      13.4º(-1.6)     71%         -         0.0 km/h    1023.8 hpa     23.2º    0.0 mm
   11-12-2018    03:00      13.4º(-1.6)     71%         -         0.0 km/h    1023.7 hpa     23.2º    0.0 mm
   11-12-2018    02:55      13.5º(-1.4)     71%         -         0.0 km/h    1023.6 hpa     23.2º    0.0 mm
   11-12-2018    02:50      13.6º(-1.2)     71%         -         0.0 km/h    1023.5 hpa     23.3º    0.0 mm
   11-12-2018    02:45      13.7º(-1.0)     70%         -         0.0 km/h    1023.5 hpa     23.3º    0.0 mm
   11-12-2018    02:40      13.8º(-0.8)     70%         -         0.0 km/h    1023.3 hpa     23.3º    0.0 mm
   11-12-2018    02:35      13.9º(-0.6)     69%         -         0.0 km/h    1023.2 hpa     23.3º    0.0 mm
   11-12-2018    02:30      13.9º(-0.5)     69%         -         0.0 km/h    1023.3 hpa     23.3º    0.0 mm
   11-12-2018    02:25      13.9º(-0.5)     69%         -         0.0 km/h    1023.2 hpa     23.3º    0.0 mm
   11-12-2018    02:20      14.1º(-0.2)     68%         -         0.0 km/h    1023.1 hpa     23.3º    0.0 mm
   11-12-2018    02:15      14.1º(-0.1)     68%         -         0.0 km/h    1023.1 hpa     23.3º    0.0 mm
   11-12-2018    02:10      14.2º(-0.1)     67%         -         0.0 km/h    1023.2 hpa     23.3º    0.0 mm
   11-12-2018    02:05      14.3º(-0.1)     66%         -         0.0 km/h    1023.2 hpa     23.4º    0.0 mm
   11-12-2018    02:00      14.3º(-0.1)     66%         -         0.0 km/h    1023.1 hpa     23.4º    0.0 mm
   11-12-2018    01:55      14.4º(-0.2)     65%         -         0.0 km/h    1023.2 hpa     23.4º    0.0 mm
   11-12-2018    01:50      14.6º(-0.0)     65%         -         0.0 km/h    1023.3 hpa     23.4º    0.0 mm
   11-12-2018    01:45      14.7º(+0.1)     63%         -         0.0 km/h    1023.4 hpa     23.4º    0.0 mm
   11-12-2018    01:40      14.9º(+0.3)     63%         -         0.0 km/h    1023.4 hpa     23.4º    0.0 mm
   11-12-2018    01:35      15.1º(+0.7)     62%         -         0.0 km/h    1023.5 hpa     23.4º    0.0 mm
   11-12-2018    01:30      15.3º(+1.0)     61%         -         0.0 km/h    1023.5 hpa     23.4º    0.0 mm
   11-12-2018    01:25      15.4º(+1.1)     61%         -         0.0 km/h    1023.6 hpa     23.4º    0.0 mm
   11-12-2018    01:20      15.7º(+1.5)     60%         -         0.0 km/h    1023.6 hpa     23.4º    0.0 mm
   11-12-2018    01:15      15.8º(+1.7)     59%         -         0.0 km/h    1023.6 hpa     23.4º    0.0 mm
   11-12-2018    01:10      15.9º(+1.7)     59%         -         0.0 km/h    1023.7 hpa     23.4º    0.0 mm
   11-12-2018    01:05      15.9º(+1.7)     56%         -         0.0 km/h    1023.8 hpa     23.4º    0.0 mm
   11-12-2018    01:00      15.9º(+1.6)     56%         -         0.0 km/h    1023.9 hpa     23.4º    0.0 mm
   11-12-2018    00:55      15.8º(----)     53%         -         0.0 km/h    1024.0 hpa     23.4º    0.0 mm
   11-12-2018    00:50      15.7º(----)     53%         -         0.0 km/h    1023.9 hpa     23.4º    0.0 mm
   11-12-2018    00:45      15.7º(----)     53%         -         0.0 km/h    1023.9 hpa     23.4º    0.0 mm
   11-12-2018    00:40      15.6º(----)     53%         -         0.0 km/h    1024.0 hpa     23.4º    0.0 mm
   11-12-2018    00:35      15.7º(----)     53%         -         0.0 km/h    1024.0 hpa     23.4º    0.0 mm
   11-12-2018    00:30      15.8º(----)     53%         -         0.0 km/h    1024.0 hpa     23.4º    0.0 mm
   11-12-2018    00:25      15.8º(----)     53%         -         0.0 km/h    1024.0 hpa     23.4º    0.0 mm
   11-12-2018    00:20      15.8º(----)     53%         -         0.0 km/h    1024.0 hpa     23.5º    0.0 mm
   11-12-2018    00:15      15.9º(----)     53%         -         0.0 km/h    1024.0 hpa     23.5º    0.0 mm
   11-12-2018    00:10      15.9º(----)     53%         -         0.0 km/h    1024.0 hpa     23.5º    0.0 mm
   11-12-2018    00:05      15.8º(----)     53%         -         0.0 km/h    1024.0 hpa     23.5º    0.0 mm
   11-12-2018    00:00      15.7º(----)     54%         -         0.0 km/h    1023.9 hpa     23.5º    0.0 mm